createdAt,value
2023-10-11T00:00:40.278Z,83.75
2023-10-11T00:03:28.223Z,84.40
2023-10-11T00:05:56.013Z,84.14
2023-10-11T00:08:36.425Z,84.53
2023-10-11T00:11:03.023Z,84.61
2023-10-11T00:13:34.502Z,84.60
2023-10-11T00:16:09.994Z,84.39
2023-10-11T00:18:39.486Z,84.45
2023-10-11T00:21:18.886Z,84.40
2023-10-11T00:23:52.095Z,84.43
2023-10-11T00:26:19.878Z,84.63
2023-10-11T00:28:57.438Z,84.49
2023-10-11T00:31:24.357Z,84.44
2023-10-11T00:33:50.950Z,84.62
2023-10-11T00:36:18.291Z,84.61
2023-10-11T00:38:51.662Z,84.25
2023-10-11T00:41:23.117Z,84.33
2023-10-11T00:43:52.605Z,84.34
2023-10-11T00:46:26.345Z,83.98
2023-10-11T00:48:55.220Z,83.83
2023-10-11T00:51:31.720Z,84.19
2023-10-11T00:54:01.157Z,83.72
2023-10-11T00:56:32.765Z,83.94
2023-10-11T00:59:09.833Z,84.01
2023-10-11T01:01:40.701Z,83.87
2023-10-11T01:04:18.360Z,83.90
2023-10-11T01:06:45.467Z,84.39
2023-10-11T01:09:28.108Z,84.11
2023-10-11T01:11:54.888Z,84.04
2023-10-11T01:14:24.634Z,83.93
2023-10-11T01:16:53.088Z,83.85
2023-10-11T01:19:19.931Z,84.15
2023-10-11T01:21:49.551Z,84.12
2023-10-11T01:24:17.626Z,84.05
2023-10-11T01:26:44.589Z,84.04
2023-10-11T01:29:10.999Z,83.77
2023-10-11T01:31:39.053Z,83.35
2023-10-11T01:34:05.626Z,83.28
2023-10-11T01:36:32.300Z,83.45
2023-10-11T01:39:09.464Z,83.26
2023-10-11T01:41:41.550Z,83.58
2023-10-11T01:44:08.333Z,83.41
2023-10-11T01:46:40.705Z,83.14
2023-10-11T01:49:08.750Z,83.01
2023-10-11T01:51:40.252Z,83.22
2023-10-11T01:54:13.094Z,83.20
2023-10-11T01:56:40.526Z,83.28
2023-10-11T01:59:08.344Z,83.17
2023-10-11T02:01:42.716Z,83.13
2023-10-11T02:04:15.555Z,82.99
2023-10-11T02:06:42.986Z,83.03
2023-10-11T02:09:13.277Z,83.22
2023-10-11T02:11:43.307Z,83.13
2023-10-11T02:14:10.919Z,83.27
2023-10-11T02:16:37.922Z,83.19
2023-10-11T02:19:06.383Z,83.04
2023-10-11T02:21:32.823Z,83.18
2023-10-11T02:24:00.511Z,83.22
2023-10-11T02:26:35.762Z,82.59
2023-10-11T02:29:07.883Z,82.97
2023-10-11T02:31:37.700Z,82.87
2023-10-11T02:34:16.378Z,83.06
2023-10-11T02:36:44.187Z,82.91
2023-10-11T02:39:21.748Z,83.08
2023-10-11T02:41:58.847Z,82.82
2023-10-11T02:44:26.462Z,83.13
2023-10-11T02:46:54.184Z,83.08
2023-10-11T02:49:21.374Z,83.46
2023-10-11T02:51:56.334Z,83.28
2023-10-11T02:54:35.764Z,83.50
2023-10-11T02:57:07.219Z,83.20
2023-10-11T02:59:35.966Z,83.22
2023-10-11T03:02:02.772Z,83.38
2023-10-11T03:04:40.624Z,83.27
2023-10-11T03:07:13.386Z,83.30
2023-10-11T03:09:41.763Z,83.15
2023-10-11T03:12:34.013Z,83.40
2023-10-11T03:15:08.013Z,83.73
2023-10-11T03:17:41.745Z,83.76
2023-10-11T03:20:27.948Z,83.36
2023-10-11T03:22:54.427Z,83.35
2023-10-11T03:25:20.996Z,83.24
2023-10-11T03:27:50.454Z,83.59
2023-10-11T03:30:18.009Z,83.95
2023-10-11T03:32:45.772Z,83.71
2023-10-11T03:35:17.306Z,83.83
2023-10-11T03:37:58.330Z,83.86
2023-10-11T03:40:55.373Z,84.04
2023-10-11T03:43:24.863Z,84.02
2023-10-11T03:45:52.177Z,83.43
2023-10-11T03:48:22.076Z,83.72
2023-10-11T03:50:49.318Z,83.87
2023-10-11T03:53:17.149Z,83.71
2023-10-11T03:55:47.917Z,83.85
2023-10-11T03:58:33.023Z,84.12
2023-10-11T04:01:15.067Z,84.03
2023-10-11T04:03:42.731Z,83.65
2023-10-11T04:06:17.038Z,83.91
2023-10-11T04:09:02.134Z,84.03
2023-10-11T04:11:32.095Z,83.84
2023-10-11T04:13:58.821Z,83.89
2023-10-11T04:16:25.282Z,83.75
2023-10-11T04:18:53.695Z,84.10
2023-10-11T04:21:39.154Z,84.29
2023-10-11T04:24:07.938Z,84.37
2023-10-11T04:26:37.228Z,84.48
2023-10-11T04:29:08.378Z,84.69
2023-10-11T04:31:56.893Z,84.97
2023-10-11T04:34:33.214Z,84.41
2023-10-11T04:37:06.191Z,84.59
2023-10-11T04:39:35.451Z,84.92
2023-10-11T04:42:04.260Z,84.71
2023-10-11T04:44:57.286Z,84.91
2023-10-11T04:47:25.383Z,85.22
2023-10-11T04:49:55.456Z,84.98
2023-10-11T04:52:26.111Z,84.92
2023-10-11T04:54:56.271Z,85.06
2023-10-11T04:57:50.060Z,85.52
2023-10-11T05:00:19.513Z,85.40
2023-10-11T05:02:52.429Z,85.31
2023-10-11T05:05:22.162Z,85.77
2023-10-11T05:07:56.324Z,85.87
2023-10-11T05:10:22.723Z,85.87
2023-10-11T05:12:59.045Z,85.85
2023-10-11T05:15:36.123Z,86.27
2023-10-11T05:18:08.007Z,85.99
2023-10-11T05:20:45.928Z,86.25
2023-10-11T05:23:15.423Z,86.34
2023-10-11T05:25:59.626Z,86.28
2023-10-11T05:28:28.319Z,86.19
2023-10-11T05:31:14.471Z,86.01
2023-10-11T05:34:00.737Z,86.23
2023-10-11T05:36:45.903Z,86.34
2023-10-11T05:39:31.059Z,86.10
2023-10-11T05:42:15.749Z,86.79
2023-10-11T05:45:00.910Z,86.81
2023-10-11T05:47:45.907Z,86.83
2023-10-11T05:50:31.091Z,87.16
2023-10-11T05:52:57.513Z,87.14
2023-10-11T05:55:24.107Z,87.30
2023-10-11T05:57:51.218Z,87.33
2023-10-11T06:00:24.457Z,87.24
2023-10-11T06:02:53.210Z,86.83
2023-10-11T06:05:24.602Z,87.07
2023-10-11T06:08:02.235Z,87.04
2023-10-11T06:10:42.940Z,87.10
2023-10-11T06:13:15.859Z,87.19
2023-10-11T06:16:01.903Z,86.96
2023-10-11T06:18:53.537Z,87.22
2023-10-11T06:21:25.285Z,87.45
2023-10-11T06:23:54.742Z,87.28
2023-10-11T06:26:50.668Z,87.18
2023-10-11T06:29:23.994Z,87.27
2023-10-11T06:32:01.681Z,87.05
2023-10-11T06:34:36.215Z,87.16
2023-10-11T06:37:03.303Z,86.96
2023-10-11T06:39:39.447Z,87.22
2023-10-11T06:42:23.285Z,87.18
2023-10-11T06:44:58.516Z,86.55
2023-10-11T06:47:27.418Z,86.22
2023-10-11T06:49:56.262Z,86.18
2023-10-11T06:52:27.656Z,86.06
2023-10-11T06:55:13.610Z,86.38
2023-10-11T06:57:53.634Z,86.58
2023-10-11T07:00:22.869Z,86.70
2023-10-11T07:03:23.362Z,86.46
2023-10-11T07:06:01.716Z,86.82
2023-10-11T07:08:32.930Z,87.06
2023-10-11T07:11:18.866Z,86.91
2023-10-11T07:13:56.305Z,87.07
2023-10-11T07:16:25.210Z,87.22
2023-10-11T07:18:55.937Z,87.20
2023-10-11T07:21:27.277Z,87.37
2023-10-11T07:23:54.345Z,87.22
2023-10-11T07:26:26.281Z,87.20
2023-10-11T07:28:54.061Z,87.17
2023-10-11T07:31:34.940Z,87.04
2023-10-11T07:34:07.515Z,86.84
2023-10-11T07:36:37.654Z,87.18
2023-10-11T07:39:26.152Z,87.13
2023-10-11T07:42:10.298Z,87.32
2023-10-11T07:44:38.773Z,87.31
2023-10-11T07:47:08.382Z,87.60
2023-10-11T07:49:41.407Z,87.38
2023-10-11T07:52:12.554Z,87.30
2023-10-11T07:54:41.024Z,87.23
2023-10-11T07:57:14.929Z,87.03
2023-10-11T07:59:43.027Z,87.11
2023-10-11T08:02:27.206Z,87.23
2023-10-11T08:04:55.065Z,87.04
2023-10-11T08:07:23.702Z,87.03
2023-10-11T08:09:54.196Z,87.14
2023-10-11T08:12:24.881Z,86.88
2023-10-11T08:14:54.844Z,86.62
2023-10-11T08:17:22.758Z,86.78
2023-10-11T08:19:57.170Z,86.74
2023-10-11T08:22:26.504Z,86.43
2023-10-11T08:24:58.147Z,86.46
2023-10-11T08:27:31.677Z,86.27
2023-10-11T08:30:08.879Z,86.55
2023-10-11T08:32:45.033Z,86.51
2023-10-11T08:35:34.011Z,86.59
2023-10-11T08:38:07.522Z,86.41
2023-10-11T08:40:38.142Z,86.36
2023-10-11T08:43:08.009Z,86.53
2023-10-11T08:45:50.667Z,86.02
2023-10-11T08:48:18.590Z,86.28
2023-10-11T08:50:57.822Z,86.24
2023-10-11T08:53:27.587Z,86.33
2023-10-11T08:56:00.906Z,86.12
2023-10-11T08:58:30.851Z,86.27
2023-10-11T09:00:59.793Z,86.69
2023-10-11T09:03:30.310Z,86.29
2023-10-11T09:05:59.746Z,86.32
2023-10-11T09:08:28.547Z,86.02
2023-10-11T09:11:06.902Z,86.08
2023-10-11T09:13:37.734Z,86.31
2023-10-11T09:16:13.157Z,86.04
2023-10-11T09:18:40.918Z,86.35
2023-10-11T09:21:17.006Z,85.96
2023-10-11T09:23:47.876Z,85.82
2023-10-11T09:26:22.911Z,85.47
2023-10-11T09:28:58.145Z,85.13
2023-10-11T09:31:25.314Z,85.01
2023-10-11T09:33:54.433Z,84.70
2023-10-11T09:36:23.710Z,84.94
2023-10-11T09:38:56.216Z,84.53
2023-10-11T09:41:25.157Z,84.61
2023-10-11T09:43:57.260Z,84.55
2023-10-11T09:46:30.356Z,84.53
2023-10-11T09:49:01.823Z,84.37
2023-10-11T09:51:30.078Z,84.23
2023-10-11T09:54:03.000Z,83.97
2023-10-11T09:57:04.481Z,83.40
2023-10-11T10:00:02.166Z,83.25
2023-10-11T10:02:35.590Z,83.09
2023-10-11T10:05:06.287Z,82.92
2023-10-11T10:07:40.930Z,82.72
2023-10-11T10:10:25.880Z,82.42
2023-10-11T10:12:59.934Z,82.49
2023-10-11T10:15:34.635Z,82.33
2023-10-11T10:18:07.515Z,82.22
2023-10-11T10:20:44.114Z,82.46
2023-10-11T10:23:19.730Z,82.43
2023-10-11T10:25:53.704Z,82.45
2023-10-11T10:28:40.446Z,82.14
2023-10-11T10:31:18.353Z,82.03
2023-10-11T10:33:51.416Z,81.90
2023-10-11T10:36:30.365Z,81.53
2023-10-11T10:39:06.316Z,81.42
2023-10-11T10:41:34.485Z,81.13
2023-10-11T10:44:19.481Z,81.28
2023-10-11T10:46:46.033Z,81.26
2023-10-11T10:49:12.463Z,81.15
2023-10-11T10:51:41.017Z,81.23
2023-10-11T10:54:15.556Z,81.14
2023-10-11T10:56:47.188Z,80.94
2023-10-11T10:59:15.227Z,81.24
2023-10-11T11:01:45.618Z,81.14
2023-10-11T11:04:13.586Z,80.88
2023-10-11T11:06:50.171Z,80.83
2023-10-11T11:09:27.358Z,81.00
2023-10-11T11:11:58.056Z,80.79
2023-10-11T11:14:25.584Z,80.57
2023-10-11T11:16:58.981Z,80.44
2023-10-11T11:19:28.578Z,80.37
2023-10-11T11:22:16.481Z,80.34
2023-10-11T11:24:44.242Z,80.18
2023-10-11T11:27:28.048Z,80.00
2023-10-11T11:29:55.423Z,79.76
2023-10-11T11:32:43.047Z,79.66
2023-10-11T11:35:29.826Z,79.63
2023-10-11T11:38:21.953Z,79.77
2023-10-11T11:40:53.438Z,79.48
2023-10-11T11:43:25.267Z,79.78
2023-10-11T11:45:58.160Z,79.67
2023-10-11T11:48:25.500Z,79.81
2023-10-11T11:50:57.141Z,79.68
2023-10-11T11:53:23.748Z,79.59
2023-10-11T11:55:50.635Z,79.46
2023-10-11T11:58:20.588Z,79.45
2023-10-11T12:00:47.742Z,79.73
2023-10-11T12:03:14.451Z,79.78
2023-10-11T12:05:44.177Z,79.95
2023-10-11T12:08:22.099Z,80.06
2023-10-11T12:10:50.989Z,80.02
2023-10-11T12:13:24.263Z,79.93
2023-10-11T12:15:55.934Z,79.78
2023-10-11T12:18:36.139Z,79.76
2023-10-11T12:21:11.922Z,79.78
2023-10-11T12:23:46.845Z,79.96
2023-10-11T12:26:14.354Z,79.79
2023-10-11T12:28:40.784Z,79.71
2023-10-11T12:31:07.326Z,79.71
2023-10-11T12:33:34.464Z,79.70
2023-10-11T12:36:02.767Z,79.68
2023-10-11T12:38:29.379Z,79.57
2023-10-11T12:40:55.836Z,79.57
2023-10-11T12:43:24.004Z,79.26
2023-10-11T12:45:50.499Z,79.23
2023-10-11T12:48:17.229Z,79.18
2023-10-11T12:50:43.714Z,79.00
2023-10-11T12:53:13.213Z,79.21
2023-10-11T12:55:44.908Z,79.29
2023-10-11T12:58:14.585Z,79.31
2023-10-11T13:01:02.910Z,79.66
2023-10-11T13:03:38.990Z,79.93
2023-10-11T13:06:10.664Z,79.44
2023-10-11T13:08:39.040Z,79.77
2023-10-11T13:11:13.025Z,79.64
2023-10-11T13:13:41.756Z,79.56
2023-10-11T13:16:09.485Z,79.69
2023-10-11T13:18:42.206Z,79.72
2023-10-11T13:21:13.261Z,79.82
2023-10-11T13:23:41.099Z,79.88
2023-10-11T13:26:08.766Z,80.08
2023-10-11T13:28:41.706Z,79.98
2023-10-11T13:31:13.378Z,80.00
2023-10-11T13:33:39.942Z,80.05
2023-10-11T13:36:10.373Z,80.10
2023-10-11T13:38:38.606Z,80.12
2023-10-11T13:41:05.695Z,80.22
2023-10-11T13:43:32.187Z,80.10
2023-10-11T13:46:08.224Z,80.46
2023-10-11T13:48:38.707Z,80.46
2023-10-11T13:51:08.071Z,80.52
2023-10-11T13:53:45.455Z,80.49
2023-10-11T13:56:22.859Z,80.41
2023-10-11T13:58:52.784Z,80.66
2023-10-11T14:01:58.162Z,80.86
2023-10-11T14:04:49.057Z,80.88
2023-10-11T14:07:24.156Z,80.95
2023-10-11T14:09:55.264Z,81.32
2023-10-11T14:12:35.364Z,81.49
2023-10-11T14:15:08.098Z,81.23
2023-10-11T14:17:39.634Z,81.19
2023-10-11T14:20:08.696Z,81.38
2023-10-11T14:22:36.342Z,81.31
2023-10-11T14:25:08.574Z,81.41
2023-10-11T14:27:35.266Z,81.44
2023-10-11T14:30:01.939Z,81.81
2023-10-11T14:32:28.541Z,81.73
2023-10-11T14:34:55.063Z,81.73
2023-10-11T14:37:21.528Z,81.81
2023-10-11T14:39:51.803Z,82.18
2023-10-11T14:42:18.273Z,82.52
2023-10-11T14:44:44.796Z,82.61
2023-10-11T14:47:15.081Z,82.95
2023-10-11T14:49:41.992Z,83.27
2023-10-11T14:52:09.351Z,83.48
2023-10-11T14:54:40.502Z,83.48
2023-10-11T14:57:08.729Z,83.46
2023-10-11T14:59:36.232Z,83.32
2023-10-11T15:02:07.744Z,83.54
2023-10-11T15:04:36.449Z,83.66
2023-10-11T15:07:02.926Z,83.48
2023-10-11T15:09:34.366Z,83.46
2023-10-11T15:12:01.442Z,83.70
2023-10-11T15:14:28.079Z,83.79
2023-10-11T15:16:59.364Z,83.52
2023-10-11T15:19:26.198Z,83.63
2023-10-11T15:21:53.626Z,83.67
2023-10-11T15:24:24.436Z,83.66
2023-10-11T15:26:52.801Z,83.72
2023-10-11T15:29:19.291Z,83.48
2023-10-11T15:31:45.857Z,83.50
2023-10-11T15:34:14.074Z,83.66
2023-10-11T15:36:42.177Z,83.44
2023-10-11T15:39:11.531Z,83.53
2023-10-11T15:41:39.097Z,83.60
2023-10-11T15:44:05.749Z,83.52
2023-10-11T15:46:32.245Z,83.48
2023-10-11T15:49:01.432Z,83.38
2023-10-11T15:51:28.106Z,83.39
2023-10-11T15:53:54.596Z,83.33
2023-10-11T15:56:21.258Z,83.42
2023-10-11T15:58:50.039Z,83.21
2023-10-11T16:01:16.890Z,83.24
2023-10-11T16:03:51.738Z,83.10
2023-10-11T16:06:20.846Z,82.93
2023-10-11T16:08:47.391Z,83.02
2023-10-11T16:11:16.729Z,82.78
2023-10-11T16:13:45.478Z,82.94
2023-10-11T16:16:17.564Z,82.94
2023-10-11T16:18:48.839Z,82.85
2023-10-11T16:21:16.654Z,82.82
2023-10-11T16:23:43.935Z,82.77
2023-10-11T16:26:12.069Z,82.59
2023-10-11T16:28:39.560Z,82.68
2023-10-11T16:31:09.179Z,83.18
2023-10-11T16:33:36.211Z,82.97
2023-10-11T16:36:06.736Z,83.21
2023-10-11T16:38:34.711Z,83.34
2023-10-11T16:41:05.660Z,83.56
2023-10-11T16:43:38.462Z,83.33
2023-10-11T16:46:13.408Z,83.84
2023-10-11T16:48:46.894Z,84.12
2023-10-11T16:51:14.086Z,84.30
2023-10-11T16:53:45.505Z,84.52
2023-10-11T16:56:14.426Z,84.76
2023-10-11T16:58:45.492Z,85.05
2023-10-11T17:01:13.208Z,85.55
2023-10-11T17:03:41.230Z,85.66
2023-10-11T17:06:09.014Z,85.59
2023-10-11T17:08:39.400Z,85.88
2023-10-11T17:11:14.166Z,86.00
2023-10-11T17:13:40.808Z,86.10
2023-10-11T17:16:07.927Z,86.08
2023-10-11T17:18:36.031Z,86.35
2023-10-11T17:21:04.405Z,86.37
2023-10-11T17:23:31.855Z,86.88
2023-10-11T17:26:14.286Z,87.23
2023-10-11T17:28:42.437Z,87.11
2023-10-11T17:31:11.567Z,87.11
2023-10-11T17:33:38.057Z,87.16
2023-10-11T17:36:09.837Z,87.30
2023-10-11T17:38:37.546Z,87.41
2023-10-11T17:41:10.329Z,87.71
2023-10-11T17:43:38.067Z,87.97
2023-10-11T17:46:08.267Z,87.96
2023-10-11T17:48:36.246Z,88.29
2023-10-11T17:51:07.327Z,88.24
2023-10-11T17:53:36.854Z,88.24
2023-10-11T17:56:05.488Z,88.39
2023-10-11T17:58:32.086Z,88.49
2023-10-11T18:00:58.938Z,88.49
2023-10-11T18:03:25.742Z,88.41
2023-10-11T18:05:52.419Z,88.47
2023-10-11T18:08:18.872Z,88.51
2023-10-11T18:10:45.308Z,88.90
2023-10-11T18:13:11.727Z,89.23
2023-10-11T18:15:38.841Z,89.50
2023-10-11T18:18:11.318Z,89.49
2023-10-11T18:20:38.770Z,89.61
2023-10-11T18:23:09.849Z,89.45
2023-10-11T18:25:37.112Z,89.77
2023-10-11T18:28:06.243Z,89.70
2023-10-11T18:30:33.976Z,89.65
2023-10-11T18:33:01.337Z,89.70
2023-10-11T18:35:27.915Z,89.76
2023-10-11T18:37:54.619Z,89.50
2023-10-11T18:40:21.637Z,89.38
2023-10-11T18:42:50.812Z,89.39
2023-10-11T18:45:18.892Z,89.48
2023-10-11T18:47:46.518Z,89.60
2023-10-11T18:50:15.572Z,89.56
2023-10-11T18:52:43.018Z,89.63
2023-10-11T18:55:09.785Z,89.44
2023-10-11T18:57:37.395Z,89.58
2023-10-11T19:00:13.871Z,89.72
2023-10-11T19:02:45.618Z,89.77
2023-10-11T19:05:13.124Z,89.84
2023-10-11T19:07:40.120Z,90.07
2023-10-11T19:10:08.042Z,89.88
2023-10-11T19:12:38.077Z,89.71
2023-10-11T19:15:07.737Z,89.62
2023-10-11T19:17:34.890Z,89.60
2023-10-11T19:20:01.850Z,89.42
2023-10-11T19:22:29.332Z,89.41
2023-10-11T19:24:56.046Z,89.46
2023-10-11T19:27:22.564Z,89.54
2023-10-11T19:29:49.138Z,89.67
2023-10-11T19:32:19.543Z,89.74
2023-10-11T19:34:49.908Z,89.87
2023-10-11T19:37:18.908Z,89.77
2023-10-11T19:39:46.580Z,90.16
2023-10-11T19:42:14.247Z,89.93
2023-10-11T19:44:40.885Z,90.14
2023-10-11T19:47:08.002Z,89.84
2023-10-11T19:49:34.612Z,89.72
2023-10-11T19:52:01.748Z,89.71
2023-10-11T19:54:29.355Z,89.53
2023-10-11T19:56:55.895Z,89.34
2023-10-11T19:59:24.523Z,89.20
2023-10-11T20:01:51.226Z,89.71
2023-10-11T20:04:17.938Z,89.68
2023-10-11T20:06:44.562Z,89.50
2023-10-11T20:09:11.114Z,89.26
2023-10-11T20:11:37.686Z,89.65
2023-10-11T20:14:04.885Z,89.29
2023-10-11T20:16:31.414Z,89.27
2023-10-11T20:18:58.771Z,89.25
2023-10-11T20:21:25.413Z,88.77
2023-10-11T20:23:55.381Z,88.89
2023-10-11T20:26:25.829Z,88.38
2023-10-11T20:28:57.952Z,88.64
2023-10-11T20:31:25.273Z,88.32
2023-10-11T20:33:51.987Z,88.19
2023-10-11T20:36:19.601Z,88.18
2023-10-11T20:38:47.119Z,87.98
2023-10-11T20:41:13.919Z,87.89
2023-10-11T20:43:40.580Z,87.54
2023-10-11T20:46:10.232Z,87.50
2023-10-11T20:48:37.630Z,87.57
2023-10-11T20:51:06.417Z,87.45
2023-10-11T20:53:39.176Z,87.26
2023-10-11T20:56:08.011Z,87.00
2023-10-11T20:58:39.802Z,86.87
2023-10-11T21:01:06.964Z,86.97
2023-10-11T21:03:36.670Z,86.69
2023-10-11T21:06:03.334Z,86.42
2023-10-11T21:08:29.802Z,86.37
2023-10-11T21:10:56.266Z,86.63
2023-10-11T21:13:26.860Z,86.54
2023-10-11T21:15:59.953Z,86.28
2023-10-11T21:18:26.587Z,86.18
2023-10-11T21:20:53.441Z,86.37
2023-10-11T21:23:21.355Z,86.08
2023-10-11T21:25:53.075Z,86.20
2023-10-11T21:28:19.606Z,85.95
2023-10-11T21:30:46.959Z,86.13
2023-10-11T21:33:16.636Z,86.09
2023-10-11T21:35:43.307Z,85.82
2023-10-11T21:38:10.657Z,85.82
2023-10-11T21:40:37.885Z,86.06
2023-10-11T21:43:04.899Z,86.29
2023-10-11T21:45:32.492Z,86.26
2023-10-11T21:48:01.932Z,86.25
2023-10-11T21:50:31.141Z,86.10
2023-10-11T21:53:00.693Z,86.25
2023-10-11T21:55:27.887Z,86.60
2023-10-11T21:57:58.183Z,86.55
2023-10-11T22:00:44.460Z,86.67
2023-10-11T22:03:11.050Z,86.61
2023-10-11T22:05:40.676Z,86.82
2023-10-11T22:08:07.104Z,86.90
2023-10-11T22:10:39.022Z,87.15
2023-10-11T22:13:05.969Z,87.11
2023-10-11T22:15:32.488Z,87.40
2023-10-11T22:17:59.008Z,87.48
2023-10-11T22:20:27.864Z,87.91
2023-10-11T22:22:55.766Z,88.23
2023-10-11T22:25:22.355Z,88.35
2023-10-11T22:27:49.489Z,88.62
2023-10-11T22:30:24.187Z,89.18
2023-10-11T22:32:55.134Z,89.29
2023-10-11T22:35:22.197Z,89.53
2023-10-11T22:37:49.138Z,90.10
2023-10-11T22:40:18.451Z,90.35
2023-10-11T22:42:47.045Z,90.30
2023-10-11T22:45:21.898Z,90.52
2023-10-11T22:47:51.477Z,90.75
2023-10-11T22:50:19.575Z,90.66
2023-10-11T22:52:55.998Z,90.50
2023-10-11T22:55:22.448Z,91.07
2023-10-11T22:57:50.812Z,91.00
2023-10-11T23:00:21.350Z,91.11
2023-10-11T23:02:50.152Z,91.41
2023-10-11T23:05:18.393Z,91.22
2023-10-11T23:07:48.640Z,91.38
2023-10-11T23:10:20.373Z,91.30
2023-10-11T23:12:51.545Z,91.55
2023-10-11T23:15:22.224Z,91.68
2023-10-11T23:17:51.515Z,92.00
2023-10-11T23:20:19.007Z,92.00
2023-10-11T23:22:51.266Z,91.54
2023-10-11T23:25:27.770Z,91.99
2023-10-11T23:27:57.858Z,91.68
2023-10-11T23:30:28.887Z,91.56
2023-10-11T23:33:08.909Z,91.45
2023-10-11T23:35:38.514Z,91.17
2023-10-11T23:38:27.201Z,91.47
2023-10-11T23:41:16.709Z,91.08
2023-10-11T23:44:00.076Z,90.94
2023-10-11T23:46:30.823Z,90.79
2023-10-11T23:49:08.102Z,90.77
2023-10-11T23:51:43.017Z,90.56
2023-10-11T23:54:13.616Z,90.23
2023-10-11T23:56:45.451Z,90.34
2023-10-11T23:59:17.236Z,90.13
